David B — WDI7661 — position and weather

sailwx.info

Track history (hours):
 
Tides and Currents Weather Stations Pressure Air Temp Water Temp Dewpoint Dewpoint Depression Visibility Wind Speed Wind Dir Waves Ship Positions

David B

Owner: G & H TOWING COMPANY, Galveston, TX. More information available from US FCC via Universal Licensing System and Coast Guard Vessel Documentation Center.

Last reported at 2018-Jan-20 23:00 UTC. Time now 2018-Jan-20 23:14 UTC.
Position N 29°37' W 095°00'.

Length 24 m; draft 5.4 m.

Type: Tug. MMSI: 367730910.

Date/timePositionNaut miles runAvg speedWind from/ knotsBaromVisibWave heightAir tempDewpointWater temp
2018-Jan-20 23:00N 29°37' W 095°00'0 0.1
2018-Jan-20 22:30N 29°37' W 095°00'0 0.0
2018-Jan-20 22:00N 29°37' W 095°00'0 0.0
2018-Jan-20 21:30N 29°37' W 095°00'0 0.0
2018-Jan-20 21:00N 29°37' W 095°00'0 0.3
2018-Jan-20 20:30N 29°37' W 095°01'0 0.1
2018-Jan-20 19:35N 29°37' W 095°01'0 0.0
2018-Jan-20 19:27N 29°37' W 095°01'1 1.6
2018-Jan-20 18:59N 29°37' W 094°60'1 1.8
2018-Jan-20 18:30N 29°37' W 094°59'1 2.6
2018-Jan-20 18:00N 29°37' W 095°00'1 1.6
2018-Jan-20 17:29N 29°37' W 095°01'0 0.0
2018-Jan-20 16:59N 29°37' W 095°01'0 0.0
2018-Jan-20 16:29N 29°37' W 095°01'0 0.0
2018-Jan-20 15:56N 29°37' W 095°01'0 0.0
2018-Jan-20 15:29N 29°37' W 095°01'0 0.0
2018-Jan-20 14:56N 29°37' W 095°01'0 0.0
2018-Jan-20 14:26N 29°37' W 095°01'0 0.0
2018-Jan-20 13:59N 29°37' W 095°01'0 0.0
2018-Jan-20 13:29N 29°37' W 095°01'0 0.0
2018-Jan-20 12:59N 29°37' W 095°01'0 0.0
2018-Jan-20 12:29N 29°37' W 095°01'0 0.0
2018-Jan-20 11:59N 29°37' W 095°01'0 0.0
2018-Jan-20 11:29N 29°37' W 095°01'0 0.0
2018-Jan-20 10:59N 29°37' W 095°01'0 0.0
2018-Jan-20 10:29N 29°37' W 095°01'0 0.0
2018-Jan-20 09:59N 29°37' W 095°01'0 0.0
2018-Jan-20 09:29N 29°37' W 095°01'0 0.0
2018-Jan-20 08:59N 29°37' W 095°01'0 0.0
2018-Jan-20 08:29N 29°37' W 095°01'0 0.0
2018-Jan-20 07:59N 29°37' W 095°01'0 0.0
2018-Jan-20 07:26N 29°37' W 095°01'0 0.0
2018-Jan-20 06:59N 29°37' W 095°01'0 0.0
2018-Jan-20 06:29N 29°37' W 095°01'0 0.0
2018-Jan-20 05:54N 29°37' W 095°01'3 7.2
2018-Jan-20 05:29N 29°37' W 094°58'5 9.7
2018-Jan-20 05:00N 29°41' W 094°59'2 0.2
2018-Jan-19 18:58N 29°42' W 095°01'6 6.8
2018-Jan-19 18:04N 29°37' W 094°58'110.8
2018-Jan-19 18:00N 29°37' W 094°59'1 2.7
2018-Jan-19 17:31N 29°37' W 095°00'0 0.1
2018-Jan-19 17:00N 29°37' W 095°00'1 1.7
2018-Jan-19 16:30N 29°37' W 095°01'1 1.7
2018-Jan-19 16:01N 29°37' W 095°00'1 1.4
2018-Jan-19 15:30N 29°37' W 095°01'0 0.0
2018-Jan-19 14:56N 29°37' W 095°01'0 0.0
2018-Jan-19 14:31N 29°37' W 095°01'0 0.0
2018-Jan-19 14:01N 29°37' W 095°01'0 0.0
2018-Jan-19 13:31N 29°37' W 095°01'3 6.5
2018-Jan-19 12:58N 29°36' W 094°57'3 6.2
2018-Jan-19 12:31N 29°37' W 095°00'0 0.1
2018-Jan-19 12:01N 29°37' W 095°00'1 0.9
2018-Jan-19 11:19N 29°37' W 095°01'0 0.0
2018-Jan-19 10:58N 29°37' W 095°01'0 0.0
2018-Jan-19 10:28N 29°37' W 095°01'0 0.0
2018-Jan-19 09:58N 29°37' W 095°01'0 0.0
2018-Jan-19 09:28N 29°37' W 095°01'0 0.0
2018-Jan-19 08:58N 29°37' W 095°01'0 0.0
2018-Jan-19 08:28N 29°37' W 095°01'0 0.0
2018-Jan-19 07:58N 29°37' W 095°01'0 0.0
2018-Jan-19 07:30N 29°37' W 095°01'3 6.2
2018-Jan-19 07:00N 29°37' W 094°58'4 8.2
2018-Jan-19 06:30N 29°41' W 094°60'1 1.1
2018-Jan-19 05:55N 29°41' W 095°01'1 1.6
2018-Jan-19 05:30N 29°41' W 094°60'1 1.8
2018-Jan-19 05:00N 29°41' W 094°59'1 0.3
2018-Jan-19 02:29N 29°41' W 094°60'0 0.5
2018-Jan-19 02:00N 29°41' W 094°60'0 0.0
2018-Jan-19 00:56N 29°41' W 094°60'1 2.2
2018-Jan-19 00:29N 29°40' W 094°59'2 3.3
2018-Jan-18 23:59N 29°41' W 095°00'2 3.6
2018-Jan-18 23:27N 29°40' W 094°59'3 7.0
2018-Jan-18 23:00N 29°37' W 094°58'1 0.9
2018-Jan-18 22:03N 29°37' W 094°59'0 4.4
2018-Jan-18 22:00N 29°37' W 094°60'2 2.2
2018-Jan-18 21:18N 29°37' W 095°01'0 0.1
2018-Jan-18 21:01N 29°37' W 095°01'0 0.1
2018-Jan-18 20:31N 29°37' W 095°01'0 0.0
2018-Jan-18 20:01N 29°37' W 095°01'0 0.4
2018-Jan-18 19:30N 29°37' W 095°02'0 0.8
2018-Jan-18 18:58N 29°37' W 095°01'0 0.0
2018-Jan-18 18:31N 29°37' W 095°01'0 0.0
2018-Jan-18 17:59N 29°37' W 095°01'0 0.0
2018-Jan-18 17:28N 29°37' W 095°01'0 0.0
2018-Jan-18 16:43N 29°37' W 095°01'0 0.0
2018-Jan-18 16:25N 29°37' W 095°01'0 0.0
2018-Jan-18 14:11N 29°37' W 095°01'0 0.0
2018-Jan-18 14:00N 29°37' W 095°01'0 0.0
2018-Jan-18 13:30N 29°37' W 095°01'0 0.8
2018-Jan-18 13:00N 29°37' W 095°01'0 0.0
2018-Jan-18 12:29N 29°37' W 095°01'0 0.4
2018-Jan-18 11:31N 29°37' W 095°01'0 0.1
2018-Jan-18 11:28N 29°37' W 095°01'0 0.0
2018-Jan-18 10:58N 29°37' W 095°01'0 0.0
2018-Jan-18 10:29N 29°37' W 095°01'0 0.0
2018-Jan-18 09:58N 29°37' W 095°01'0 0.0
2018-Jan-18 09:28N 29°37' W 095°01'0 0.0
2018-Jan-18 08:58N 29°37' W 095°01'0 0.6
2018-Jan-18 08:31N 29°37' W 095°01'3 6.7
2018-Jan-18 08:00N 29°38' W 094°58'5 9.4
2018-Jan-18 07:30N 29°42' W 095°00'1 0.3
2018-Jan-18 05:20N 29°42' W 095°01'0 0.2
2018-Jan-18 04:26N 29°42' W 095°01'0 0.2
2018-Jan-18 03:44N 29°42' W 095°01'2 8.4
2018-Jan-18 03:30N 29°41' W 094°59'5 9.2
2018-Jan-18 03:01N 29°37' W 094°58'3 6.0
2018-Jan-18 02:30N 29°37' W 095°01'1 1.4
2018-Jan-18 02:00N 29°37' W 095°01'2 3.2
2018-Jan-18 01:30N 29°37' W 094°59'2 4.0
2018-Jan-18 00:58N 29°37' W 095°01'0 0.0
2018-Jan-17 23:56N 29°37' W 095°01'  
2018-Jan-12 14:57N 29°41' W 094°59'4 9.0
2018-Jan-12 14:29N 29°37' W 094°57'3 5.7
2018-Jan-12 13:56N 29°37' W 095°01'0 0.0
2018-Jan-12 13:26N 29°37' W 095°01'0 0.0
2018-Jan-12 12:56N 29°37' W 095°01'0 0.0
2018-Jan-12 12:26N 29°37' W 095°01'0 0.0
2018-Jan-12 11:56N 29°37' W 095°01'0 0.0
2018-Jan-12 11:26N 29°37' W 095°01'0 0.0
2018-Jan-12 10:59N 29°37' W 095°01'0 0.0
2018-Jan-12 10:29N 29°37' W 095°01'0 0.0
2018-Jan-12 09:59N 29°37' W 095°01'0 0.0
2018-Jan-12 09:29N 29°37' W 095°01'0 0.0
2018-Jan-12 08:59N 29°37' W 095°01'0 0.0
2018-Jan-12 08:29N 29°37' W 095°01'0 0.0
2018-Jan-12 07:59N 29°37' W 095°01'0 0.0
2018-Jan-12 07:29N 29°37' W 095°01'0 0.0
2018-Jan-12 06:59N 29°37' W 095°01'0 0.0
2018-Jan-12 06:29N 29°37' W 095°01'0 0.0
2018-Jan-12 05:59N 29°37' W 095°01'0 0.0
2018-Jan-12 05:29N 29°37' W 095°01'0 0.0
2018-Jan-12 04:59N 29°37' W 095°01'0 0.0
2018-Jan-12 04:29N 29°37' W 095°01'0 0.0
2018-Jan-12 04:00N 29°37' W 095°01'0 0.0
2018-Jan-12 03:30N 29°37' W 095°01'0 0.0
2018-Jan-12 03:00N 29°37' W 095°01'0 0.7
2018-Jan-12 02:30N 29°37' W 095°02'1 1.8
2018-Jan-12 02:00N 29°37' W 095°00'0 0.1
2018-Jan-12 01:30N 29°37' W 095°00'0 0.0
2018-Jan-12 01:00N 29°37' W 095°00'0 0.0
2018-Jan-12 00:30N 29°37' W 095°00'0 0.0
2018-Jan-12 00:00N 29°37' W 095°00'2 4.6
2018-Jan-11 23:30N 29°37' W 094°58'3 6.0
2018-Jan-11 23:00N 29°40' W 094°58'3 6.7
2018-Jan-11 22:30N 29°42' W 095°01'2 4.5
2018-Jan-11 22:00N 29°44' W 095°03'3 5.2
2018-Jan-11 21:26N 29°45' W 095°06'0 0.5
2018-Jan-11 20:57N 29°45' W 095°06'0 0.0
2018-Jan-11 20:30N 29°45' W 095°06'1 0.5
2018-Jan-11 17:28N 29°46' W 095°05'2 1.2
2018-Jan-11 15:54N 29°45' W 095°07'5 1.6
2018-Jan-11 12:43N 29°43' W 095°01'1 2.5
2018-Jan-11 12:30N 29°42' W 095°01'0 0.0
2018-Jan-11 11:59N 29°42' W 095°01'0 0.0
2018-Jan-11 11:29N 29°42' W 095°01'6 8.0
2018-Jan-11 10:43N 29°37' W 094°58'2 9.6
2018-Jan-11 10:30N 29°37' W 095°00'1 2.1
2018-Jan-11 10:00N 29°37' W 095°01'1 1.1
2018-Jan-11 09:28N 29°37' W 095°01'0 0.0
2018-Jan-11 08:58N 29°37' W 095°01'0 0.0
2018-Jan-11 08:28N 29°37' W 095°01'0 0.0
2018-Jan-11 07:58N 29°37' W 095°01'0 0.0
2018-Jan-11 07:28N 29°37' W 095°01'0 0.0
2018-Jan-11 06:58N 29°37' W 095°01'0 0.0
2018-Jan-11 06:25N 29°37' W 095°01'0 0.0
2018-Jan-11 05:58N 29°37' W 095°01'0 0.0
2018-Jan-11 05:28N 29°37' W 095°01'0 0.0
2018-Jan-11 04:58N 29°37' W 095°01'0 0.0
2018-Jan-11 04:28N 29°37' W 095°01'0 0.0
2018-Jan-11 03:59N 29°37' W 095°01'1 1.7
2018-Jan-11 03:30N 29°37' W 095°02'0 0.3
2018-Jan-11 03:00N 29°37' W 095°01'0 0.5
2018-Jan-11 02:30N 29°37' W 095°01'0 0.0
2018-Jan-11 01:59N 29°37' W 095°01'0 0.0
2018-Jan-11 01:25N 29°37' W 095°01'0 0.0
2018-Jan-11 00:55N 29°37' W 095°01'0 0.0
2018-Jan-11 00:25N 29°37' W 095°01'0 0.0
2018-Jan-10 23:49N 29°37' W 095°01'0 0.0
2018-Jan-10 23:28N 29°37' W 095°01'0 0.0
2018-Jan-10 23:01N 29°37' W 095°01'  
Track history (hours):
 
Tides and Currents Weather Stations Pressure Air Temp Water Temp Dewpoint Dewpoint Depression Visibility Wind Speed Wind Dir Waves Ship Positions

David B

Owner: G & H TOWING COMPANY, Galveston, TX. More information available from US FCC via Universal Licensing System and Coast Guard Vessel Documentation Center.

Last reported at 2018-Jan-20 23:00 UTC. Time now 2018-Jan-20 23:14 UTC.
Position N 29°37' W 095°00'.

Length 24 m; draft 5.4 m.

Type: Tug. MMSI: 367730910.

Date/timePositionNaut miles runAvg speedWind from/ knotsBaromVisibWave heightAir tempDewpointWater temp
2018-Jan-20 23:00N 29°37' W 095°00'0 0.1
2018-Jan-20 22:30N 29°37' W 095°00'0 0.0
2018-Jan-20 22:00N 29°37' W 095°00'0 0.0
2018-Jan-20 21:30N 29°37' W 095°00'0 0.0
2018-Jan-20 21:00N 29°37' W 095°00'0 0.3
2018-Jan-20 20:30N 29°37' W 095°01'0 0.1
2018-Jan-20 19:35N 29°37' W 095°01'0 0.0
2018-Jan-20 19:27N 29°37' W 095°01'1 1.6
2018-Jan-20 18:59N 29°37' W 094°60'1 1.8
2018-Jan-20 18:30N 29°37' W 094°59'1 2.6
2018-Jan-20 18:00N 29°37' W 095°00'1 1.6
2018-Jan-20 17:29N 29°37' W 095°01'0 0.0
2018-Jan-20 16:59N 29°37' W 095°01'0 0.0
2018-Jan-20 16:29N 29°37' W 095°01'0 0.0
2018-Jan-20 15:56N 29°37' W 095°01'0 0.0
2018-Jan-20 15:29N 29°37' W 095°01'0 0.0
2018-Jan-20 14:56N 29°37' W 095°01'0 0.0
2018-Jan-20 14:26N 29°37' W 095°01'0 0.0
2018-Jan-20 13:59N 29°37' W 095°01'0 0.0
2018-Jan-20 13:29N 29°37' W 095°01'0 0.0
2018-Jan-20 12:59N 29°37' W 095°01'0 0.0
2018-Jan-20 12:29N 29°37' W 095°01'0 0.0
2018-Jan-20 11:59N 29°37' W 095°01'0 0.0
2018-Jan-20 11:29N 29°37' W 095°01'0 0.0
2018-Jan-20 10:59N 29°37' W 095°01'0 0.0
2018-Jan-20 10:29N 29°37' W 095°01'0 0.0
2018-Jan-20 09:59N 29°37' W 095°01'0 0.0
2018-Jan-20 09:29N 29°37' W 095°01'0 0.0
2018-Jan-20 08:59N 29°37' W 095°01'0 0.0
2018-Jan-20 08:29N 29°37' W 095°01'0 0.0
2018-Jan-20 07:59N 29°37' W 095°01'0 0.0
2018-Jan-20 07:26N 29°37' W 095°01'0 0.0
2018-Jan-20 06:59N 29°37' W 095°01'0 0.0
2018-Jan-20 06:29N 29°37' W 095°01'0 0.0
2018-Jan-20 05:54N 29°37' W 095°01'3 7.2
2018-Jan-20 05:29N 29°37' W 094°58'5 9.7
2018-Jan-20 05:00N 29°41' W 094°59'2 0.2
2018-Jan-19 18:58N 29°42' W 095°01'6 6.8
2018-Jan-19 18:04N 29°37' W 094°58'110.8
2018-Jan-19 18:00N 29°37' W 094°59'1 2.7
2018-Jan-19 17:31N 29°37' W 095°00'0 0.1
2018-Jan-19 17:00N 29°37' W 095°00'1 1.7
2018-Jan-19 16:30N 29°37' W 095°01'1 1.7
2018-Jan-19 16:01N 29°37' W 095°00'1 1.4
2018-Jan-19 15:30N 29°37' W 095°01'0 0.0
2018-Jan-19 14:56N 29°37' W 095°01'0 0.0
2018-Jan-19 14:31N 29°37' W 095°01'0 0.0
2018-Jan-19 14:01N 29°37' W 095°01'0 0.0
2018-Jan-19 13:31N 29°37' W 095°01'3 6.5
2018-Jan-19 12:58N 29°36' W 094°57'3 6.2
2018-Jan-19 12:31N 29°37' W 095°00'0 0.1
2018-Jan-19 12:01N 29°37' W 095°00'1 0.9
2018-Jan-19 11:19N 29°37' W 095°01'0 0.0
2018-Jan-19 10:58N 29°37' W 095°01'0 0.0
2018-Jan-19 10:28N 29°37' W 095°01'0 0.0
2018-Jan-19 09:58N 29°37' W 095°01'0 0.0
2018-Jan-19 09:28N 29°37' W 095°01'0 0.0
2018-Jan-19 08:58N 29°37' W 095°01'0 0.0
2018-Jan-19 08:28N 29°37' W 095°01'0 0.0
2018-Jan-19 07:58N 29°37' W 095°01'0 0.0
2018-Jan-19 07:30N 29°37' W 095°01'3 6.2
2018-Jan-19 07:00N 29°37' W 094°58'4 8.2
2018-Jan-19 06:30N 29°41' W 094°60'1 1.1
2018-Jan-19 05:55N 29°41' W 095°01'1 1.6
2018-Jan-19 05:30N 29°41' W 094°60'1 1.8
2018-Jan-19 05:00N 29°41' W 094°59'1 0.3
2018-Jan-19 02:29N 29°41' W 094°60'0 0.5
2018-Jan-19 02:00N 29°41' W 094°60'0 0.0
2018-Jan-19 00:56N 29°41' W 094°60'1 2.2
2018-Jan-19 00:29N 29°40' W 094°59'2 3.3
2018-Jan-18 23:59N 29°41' W 095°00'2 3.6
2018-Jan-18 23:27N 29°40' W 094°59'3 7.0
2018-Jan-18 23:00N 29°37' W 094°58'1 0.9
2018-Jan-18 22:03N 29°37' W 094°59'0 4.4
2018-Jan-18 22:00N 29°37' W 094°60'2 2.2
2018-Jan-18 21:18N 29°37' W 095°01'0 0.1
2018-Jan-18 21:01N 29°37' W 095°01'0 0.1
2018-Jan-18 20:31N 29°37' W 095°01'0 0.0
2018-Jan-18 20:01N 29°37' W 095°01'0 0.4
2018-Jan-18 19:30N 29°37' W 095°02'0 0.8
2018-Jan-18 18:58N 29°37' W 095°01'0 0.0
2018-Jan-18 18:31N 29°37' W 095°01'0 0.0
2018-Jan-18 17:59N 29°37' W 095°01'0 0.0
2018-Jan-18 17:28N 29°37' W 095°01'0 0.0
2018-Jan-18 16:43N 29°37' W 095°01'0 0.0
2018-Jan-18 16:25N 29°37' W 095°01'0 0.0
2018-Jan-18 14:11N 29°37' W 095°01'0 0.0
2018-Jan-18 14:00N 29°37' W 095°01'0 0.0
2018-Jan-18 13:30N 29°37' W 095°01'0 0.8
2018-Jan-18 13:00N 29°37' W 095°01'0 0.0
2018-Jan-18 12:29N 29°37' W 095°01'0 0.4
2018-Jan-18 11:31N 29°37' W 095°01'0 0.1
2018-Jan-18 11:28N 29°37' W 095°01'0 0.0
2018-Jan-18 10:58N 29°37' W 095°01'0 0.0
2018-Jan-18 10:29N 29°37' W 095°01'0 0.0
2018-Jan-18 09:58N 29°37' W 095°01'0 0.0
2018-Jan-18 09:28N 29°37' W 095°01'0 0.0
2018-Jan-18 08:58N 29°37' W 095°01'0 0.6
2018-Jan-18 08:31N 29°37' W 095°01'3 6.7
2018-Jan-18 08:00N 29°38' W 094°58'5 9.4
2018-Jan-18 07:30N 29°42' W 095°00'1 0.3
2018-Jan-18 05:20N 29°42' W 095°01'0 0.2
2018-Jan-18 04:26N 29°42' W 095°01'0 0.2
2018-Jan-18 03:44N 29°42' W 095°01'2 8.4
2018-Jan-18 03:30N 29°41' W 094°59'5 9.2
2018-Jan-18 03:01N 29°37' W 094°58'3 6.0
2018-Jan-18 02:30N 29°37' W 095°01'1 1.4
2018-Jan-18 02:00N 29°37' W 095°01'2 3.2
2018-Jan-18 01:30N 29°37' W 094°59'2 4.0
2018-Jan-18 00:58N 29°37' W 095°01'0 0.0
2018-Jan-17 23:56N 29°37' W 095°01'  
2018-Jan-12 14:57N 29°41' W 094°59'4 9.0
2018-Jan-12 14:29N 29°37' W 094°57'3 5.7
2018-Jan-12 13:56N 29°37' W 095°01'0 0.0
2018-Jan-12 13:26N 29°37' W 095°01'0 0.0
2018-Jan-12 12:56N 29°37' W 095°01'0 0.0
2018-Jan-12 12:26N 29°37' W 095°01'0 0.0
2018-Jan-12 11:56N 29°37' W 095°01'0 0.0
2018-Jan-12 11:26N 29°37' W 095°01'0 0.0
2018-Jan-12 10:59N 29°37' W 095°01'0 0.0
2018-Jan-12 10:29N 29°37' W 095°01'0 0.0
2018-Jan-12 09:59N 29°37' W 095°01'0 0.0
2018-Jan-12 09:29N 29°37' W 095°01'0 0.0
2018-Jan-12 08:59N 29°37' W 095°01'0 0.0
2018-Jan-12 08:29N 29°37' W 095°01'0 0.0
2018-Jan-12 07:59N 29°37' W 095°01'0 0.0
2018-Jan-12 07:29N 29°37' W 095°01'0 0.0
2018-Jan-12 06:59N 29°37' W 095°01'0 0.0
2018-Jan-12 06:29N 29°37' W 095°01'0 0.0
2018-Jan-12 05:59N 29°37' W 095°01'0 0.0
2018-Jan-12 05:29N 29°37' W 095°01'0 0.0
2018-Jan-12 04:59N 29°37' W 095°01'0 0.0
2018-Jan-12 04:29N 29°37' W 095°01'0 0.0
2018-Jan-12 04:00N 29°37' W 095°01'0 0.0
2018-Jan-12 03:30N 29°37' W 095°01'0 0.0
2018-Jan-12 03:00N 29°37' W 095°01'0 0.7
2018-Jan-12 02:30N 29°37' W 095°02'1 1.8
2018-Jan-12 02:00N 29°37' W 095°00'0 0.1
2018-Jan-12 01:30N 29°37' W 095°00'0 0.0
2018-Jan-12 01:00N 29°37' W 095°00'0 0.0
2018-Jan-12 00:30N 29°37' W 095°00'0 0.0
2018-Jan-12 00:00N 29°37' W 095°00'2 4.6
2018-Jan-11 23:30N 29°37' W 094°58'3 6.0
2018-Jan-11 23:00N 29°40' W 094°58'3 6.7
2018-Jan-11 22:30N 29°42' W 095°01'2 4.5
2018-Jan-11 22:00N 29°44' W 095°03'3 5.2
2018-Jan-11 21:26N 29°45' W 095°06'0 0.5
2018-Jan-11 20:57N 29°45' W 095°06'0 0.0
2018-Jan-11 20:30N 29°45' W 095°06'1 0.5
2018-Jan-11 17:28N 29°46' W 095°05'2 1.2
2018-Jan-11 15:54N 29°45' W 095°07'5 1.6
2018-Jan-11 12:43N 29°43' W 095°01'1 2.5
2018-Jan-11 12:30N 29°42' W 095°01'0 0.0
2018-Jan-11 11:59N 29°42' W 095°01'0 0.0
2018-Jan-11 11:29N 29°42' W 095°01'6 8.0
2018-Jan-11 10:43N 29°37' W 094°58'2 9.6
2018-Jan-11 10:30N 29°37' W 095°00'1 2.1
2018-Jan-11 10:00N 29°37' W 095°01'1 1.1
2018-Jan-11 09:28N 29°37' W 095°01'0 0.0
2018-Jan-11 08:58N 29°37' W 095°01'0 0.0
2018-Jan-11 08:28N 29°37' W 095°01'0 0.0
2018-Jan-11 07:58N 29°37' W 095°01'0 0.0
2018-Jan-11 07:28N 29°37' W 095°01'0 0.0
2018-Jan-11 06:58N 29°37' W 095°01'0 0.0
2018-Jan-11 06:25N 29°37' W 095°01'0 0.0
2018-Jan-11 05:58N 29°37' W 095°01'0 0.0
2018-Jan-11 05:28N 29°37' W 095°01'0 0.0
2018-Jan-11 04:58N 29°37' W 095°01'0 0.0
2018-Jan-11 04:28N 29°37' W 095°01'0 0.0
2018-Jan-11 03:59N 29°37' W 095°01'1 1.7
2018-Jan-11 03:30N 29°37' W 095°02'0 0.3
2018-Jan-11 03:00N 29°37' W 095°01'0 0.5
2018-Jan-11 02:30N 29°37' W 095°01'0 0.0
2018-Jan-11 01:59N 29°37' W 095°01'0 0.0
2018-Jan-11 01:25N 29°37' W 095°01'0 0.0
2018-Jan-11 00:55N 29°37' W 095°01'0 0.0
2018-Jan-11 00:25N 29°37' W 095°01'0 0.0
2018-Jan-10 23:49N 29°37' W 095°01'0 0.0
2018-Jan-10 23:28N 29°37' W 095°01'0 0.0
2018-Jan-10 23:01N 29°37' W 095°01'  

Dump ship's entire track history